PWSweather.com
Personal Weather Stations
Station Observations
MENWDWX1
Menstrie, ScotlandGB

MenstrieScotlandGB

Lat: 56.148322, Lon: -3.85483

Elevation: 62

Station Type: Davis Vantage Pro 2

High Low Average
Temperature 48.6°F9.2°C 37.8°F3.2°C 42.9°F6.1°C
Dew Point 42.5°F5.8°C 32.0°F0.0°C 36.4°F2.4°C
Winds 25.3 mph 40.7 kmh Calm Calm 11.0 mph SW17.7 kmh SW
Wind Gusts 35.7 mph57.5 kmh 1.2 mph1.9 kmh 16.0 mph25.7 kmh
Humidity 82% 73% 77%
Pressure 29.44 in997.0 mb 28.95 in980.4 mb -
Precipitation 0.89 in22.6 mm - -
Hour Temp Dew Point Humidity Winds Wind Gusts Pressure Precip Precip Rate Daily Precip Total
12:00 AM 42.8°F6.0°C 36.1°F2.3°C 77% 4.6 mph E7.4 kmh E 6.9 mph11.1 kmh 29.43 in996.6 mb - 0.01 in0.3 mm 0.01 in0.3 mm
12:05 AM 42.7°F5.9°C 36.3°F2.4°C 78% 5.8 mph E9.3 kmh E 8.1 mph13.0 kmh 29.43 in996.6 mb - 0.00 in0.0 mm 0.01 in0.3 mm
12:10 AM 42.5°F5.8°C 36.2°F2.3°C 78% 3.5 mph ESE5.6 kmh ESE 4.6 mph7.4 kmh 29.44 in997.0 mb - 0.01 in0.3 mm 0.01 in0.3 mm
12:15 AM 42.4°F5.8°C 36.1°F2.3°C 78% 2.3 mph ESE3.7 kmh ESE 3.5 mph5.6 kmh 29.43 in996.6 mb - 0.01 in0.3 mm 0.01 in0.3 mm
12:20 AM 42.4°F5.8°C 36.0°F2.2°C 78% 3.5 mph SE5.6 kmh SE 5.8 mph9.3 kmh 29.43 in996.6 mb - 0.01 in0.3 mm 0.02 in0.5 mm
12:25 AM 42.3°F5.7°C 35.9°F2.2°C 78% 2.3 mph ESE3.7 kmh ESE 3.5 mph5.6 kmh 29.41 in995.9 mb - 0.02 in0.5 mm 0.03 in0.8 mm
12:30 AM 42.2°F5.7°C 35.8°F2.1°C 78% 4.6 mph E7.4 kmh E 5.8 mph9.3 kmh 29.40 in995.6 mb - 0.01 in0.3 mm 0.03 in0.8 mm
12:35 AM 42.1°F5.6°C 35.7°F2.1°C 78% 4.6 mph E7.4 kmh E 5.8 mph9.3 kmh 29.40 in995.6 mb - 0.02 in0.5 mm 0.05 in1.3 mm
12:40 AM 42.1°F5.6°C 36.1°F2.3°C 79% 6.9 mph E11.1 kmh E 10.4 mph16.7 kmh 29.38 in994.9 mb - 0.00 in0.0 mm 0.05 in1.3 mm
12:45 AM 42.1°F5.6°C 36.1°F2.3°C 79% 5.8 mph E9.3 kmh E 6.9 mph11.1 kmh 29.37 in994.6 mb - 0.01 in0.3 mm 0.06 in1.5 mm
12:50 AM 42.1°F5.6°C 36.1°F2.3°C 79% 8.1 mph E13.0 kmh E 11.5 mph18.5 kmh 29.35 in993.9 mb - 0.00 in0.0 mm 0.06 in1.5 mm
12:55 AM 42.2°F5.7°C 36.2°F2.3°C 79% 6.9 mph ESE11.1 kmh ESE 9.2 mph14.8 kmh 29.33 in993.2 mb - 0.00 in0.0 mm 0.06 in1.5 mm
01:00 AM 42.2°F5.7°C 36.2°F2.3°C 79% 8.1 mph E13.0 kmh E 11.5 mph18.5 kmh 29.32 in992.9 mb - 0.01 in0.3 mm 0.07 in1.8 mm
01:05 AM 42.2°F5.7°C 36.2°F2.3°C 79% 6.9 mph E11.1 kmh E 9.2 mph14.8 kmh 29.31 in992.6 mb - 0.01 in0.3 mm 0.07 in1.8 mm
01:10 AM 42.2°F5.7°C 36.2°F2.3°C 79% 5.8 mph ESE9.3 kmh ESE 9.2 mph14.8 kmh 29.30 in992.2 mb - 0.01 in0.3 mm 0.08 in2.0 mm
01:15 AM 42.2°F5.7°C 36.2°F2.3°C 79% 6.9 mph E11.1 kmh E 8.1 mph13.0 kmh 29.30 in992.2 mb - 0.02 in0.5 mm 0.10 in2.5 mm
01:20 AM 42.1°F5.6°C 36.1°F2.3°C 79% 5.8 mph ESE9.3 kmh ESE 8.1 mph13.0 kmh 29.29 in991.9 mb - 0.01 in0.3 mm 0.11 in2.8 mm
01:25 AM 42.0°F5.6°C 36.0°F2.2°C 79% 6.9 mph E11.1 kmh E 8.1 mph13.0 kmh 29.28 in991.5 mb - 0.01 in0.3 mm 0.12 in3.0 mm
01:30 AM 42.0°F5.6°C 36.0°F2.2°C 79% 5.8 mph ESE9.3 kmh ESE 10.4 mph16.7 kmh 29.27 in991.2 mb - 0.02 in0.5 mm 0.13 in3.3 mm
01:35 AM 42.0°F5.6°C 36.0°F2.2°C 79% 6.9 mph E11.1 kmh E 9.2 mph14.8 kmh 29.26 in990.9 mb - 0.01 in0.3 mm 0.14 in3.6 mm
01:40 AM 42.0°F5.6°C 36.0°F2.2°C 79% 8.1 mph E13.0 kmh E 11.5 mph18.5 kmh 29.24 in990.2 mb - 0.02 in0.5 mm 0.15 in3.8 mm
01:45 AM 42.0°F5.6°C 36.0°F2.2°C 79% 8.1 mph E13.0 kmh E 11.5 mph18.5 kmh 29.24 in990.2 mb - 0.02 in0.5 mm 0.17 in4.3 mm
01:50 AM 42.2°F5.7°C 36.1°F2.3°C 79% 9.2 mph E14.8 kmh E 13.8 mph22.2 kmh 29.23 in989.8 mb - 0.02 in0.5 mm 0.18 in4.6 mm
01:55 AM 42.2°F5.7°C 36.2°F2.3°C 79% 8.1 mph E13.0 kmh E 11.5 mph18.5 kmh 29.22 in989.5 mb - 0.02 in0.5 mm 0.20 in5.1 mm
02:00 AM 42.3°F5.7°C 36.6°F2.6°C 80% 8.1 mph ESE13.0 kmh ESE 9.2 mph14.8 kmh 29.22 in989.5 mb - 0.02 in0.5 mm 0.22 in5.6 mm
02:05 AM 42.4°F5.8°C 36.7°F2.6°C 80% 8.1 mph E13.0 kmh E 11.5 mph18.5 kmh 29.22 in989.5 mb - 0.02 in0.5 mm 0.23 in5.8 mm
02:10 AM 42.5°F5.8°C 36.8°F2.7°C 80% 11.5 mph E18.5 kmh E 16.1 mph25.9 kmh 29.21 in989.2 mb - 0.02 in0.5 mm 0.26 in6.6 mm
02:15 AM 42.7°F5.9°C 37.0°F2.8°C 80% 9.2 mph E14.8 kmh E 12.7 mph20.4 kmh 29.20 in988.8 mb - 0.02 in0.5 mm 0.27 in6.9 mm
02:20 AM 42.8°F6.0°C 37.1°F2.8°C 80% 11.5 mph E18.5 kmh E 13.8 mph22.2 kmh 29.19 in988.5 mb - 0.02 in0.5 mm 0.29 in7.4 mm
02:25 AM 42.9°F6.1°C 37.2°F2.9°C 80% 9.2 mph ESE14.8 kmh ESE 12.7 mph20.4 kmh 29.19 in988.5 mb - 0.02 in0.5 mm 0.31 in7.9 mm
02:30 AM 42.9°F6.1°C 37.2°F2.9°C 80% 8.1 mph E13.0 kmh E 13.8 mph22.2 kmh 29.18 in988.1 mb - 0.02 in0.5 mm 0.33 in8.4 mm
02:35 AM 43.0°F6.1°C 37.2°F2.9°C 80% 9.2 mph ESE14.8 kmh ESE 11.5 mph18.5 kmh 29.17 in987.8 mb - 0.02 in0.5 mm 0.35 in8.9 mm
02:40 AM 43.0°F6.1°C 37.3°F2.9°C 80% 8.1 mph ESE13.0 kmh ESE 11.5 mph18.5 kmh 29.16 in987.5 mb - 0.02 in0.5 mm 0.37 in9.4 mm
02:45 AM 43.1°F6.2°C 37.3°F2.9°C 80% 6.9 mph E11.1 kmh E 11.5 mph18.5 kmh 29.16 in987.5 mb - 0.03 in0.8 mm 0.40 in10.2 mm
02:50 AM 43.3°F6.3°C 37.6°F3.1°C 80% 8.1 mph E13.0 kmh E 8.1 mph13.0 kmh 29.14 in986.8 mb - 0.02 in0.5 mm 0.41 in10.4 mm
02:55 AM 43.5°F6.4°C 38.1°F3.4°C 81% 3.5 mph E5.6 kmh E 10.4 mph16.7 kmh 29.14 in986.8 mb - 0.02 in0.5 mm 0.43 in10.9 mm
03:00 AM 43.6°F6.4°C 38.2°F3.4°C 81% 3.5 mph SSE5.6 kmh SSE 5.8 mph9.3 kmh 29.14 in986.8 mb - 0.02 in0.5 mm 0.44 in11.2 mm
03:05 AM 43.8°F6.6°C 38.3°F3.5°C 81% 3.5 mph ESE5.6 kmh ESE 6.9 mph11.1 kmh 29.13 in986.5 mb - 0.02 in0.5 mm 0.45 in11.4 mm
03:10 AM 43.9°F6.6°C 38.5°F3.6°C 81% 3.5 mph S5.6 kmh S 5.8 mph9.3 kmh 29.12 in986.1 mb - 0.02 in0.5 mm 0.46 in11.7 mm
03:15 AM 44.3°F6.8°C 38.9°F3.8°C 81% 4.6 mph SW7.4 kmh SW 5.8 mph9.3 kmh 29.12 in986.1 mb - 0.01 in0.3 mm 0.47 in11.9 mm
03:20 AM 45.0°F7.2°C 39.5°F4.2°C 81% 3.5 mph SSW5.6 kmh SSW 5.8 mph9.3 kmh 29.11 in985.8 mb - 0.01 in0.3 mm 0.48 in12.2 mm
03:25 AM 45.8°F7.7°C 40.6°F4.8°C 82% 3.5 mph S5.6 kmh S 5.8 mph9.3 kmh 29.10 in985.4 mb - 0.02 in0.5 mm 0.50 in12.7 mm
03:30 AM 46.1°F7.8°C 40.6°F4.8°C 81% 8.1 mph S13.0 kmh S 9.2 mph14.8 kmh 29.09 in985.1 mb - 0.01 in0.3 mm 0.50 in12.7 mm
03:35 AM 46.3°F7.9°C 40.8°F4.9°C 81% 2.3 mph S3.7 kmh S 3.5 mph5.6 kmh 29.09 in985.1 mb - 0.00 in0.0 mm 0.50 in12.7 mm
03:40 AM 46.4°F8.0°C 40.9°F4.9°C 81% 4.6 mph S7.4 kmh S 5.8 mph9.3 kmh 29.07 in984.4 mb - 0.01 in0.3 mm 0.50 in12.7 mm
03:45 AM 46.4°F8.0°C 40.9°F4.9°C 81% 3.5 mph SSW5.6 kmh SSW 6.9 mph11.1 kmh 29.07 in984.4 mb - 0.01 in0.3 mm 0.51 in13.0 mm
03:50 AM 46.6°F8.1°C 41.1°F5.1°C 81% 4.6 mph S7.4 kmh S 6.9 mph11.1 kmh 29.07 in984.4 mb - 0.01 in0.3 mm 0.52 in13.2 mm
03:55 AM 46.7°F8.2°C 41.2°F5.1°C 81% 3.5 mph S5.6 kmh S 4.6 mph7.4 kmh 29.06 in984.1 mb - 0.02 in0.5 mm 0.53 in13.5 mm
04:00 AM 46.7°F8.2°C 41.1°F5.1°C 81% 4.6 mph S7.4 kmh S 6.9 mph11.1 kmh 29.04 in983.4 mb - 0.01 in0.3 mm 0.54 in13.7 mm
04:05 AM 46.6°F8.1°C 41.1°F5.1°C 81% 4.6 mph S7.4 kmh S 5.8 mph9.3 kmh 29.03 in983.1 mb - 0.01 in0.3 mm 0.55 in14.0 mm
04:10 AM 46.8°F8.2°C 41.3°F5.2°C 81% 4.6 mph SSE7.4 kmh SSE 3.5 mph5.6 kmh 29.03 in983.1 mb - 0.00 in0.0 mm 0.55 in14.0 mm
04:15 AM 47.0°F8.3°C 41.5°F5.3°C 81% 8.1 mph S13.0 kmh S 11.5 mph18.5 kmh 29.02 in982.7 mb - 0.01 in0.3 mm 0.55 in14.0 mm
04:20 AM 47.3°F8.5°C 41.8°F5.4°C 81% 3.5 mph S5.6 kmh S 5.8 mph9.3 kmh 29.02 in982.7 mb - 0.01 in0.3 mm 0.56 in14.2 mm
04:25 AM 47.4°F8.6°C 41.8°F5.4°C 81% 3.5 mph SW5.6 kmh SW 8.1 mph13.0 kmh 29.02 in982.7 mb - 0.00 in0.0 mm 0.56 in14.2 mm
04:30 AM 47.6°F8.7°C 42.1°F5.6°C 81% 6.9 mph SW11.1 kmh SW 13.8 mph22.2 kmh 29.02 in982.7 mb - 0.01 in0.3 mm 0.57 in14.5 mm
04:35 AM 48.0°F8.9°C 42.1°F5.6°C 80% 9.2 mph SW14.8 kmh SW 16.1 mph25.9 kmh 29.02 in982.7 mb - 0.01 in0.3 mm 0.58 in14.7 mm
04:40 AM 48.4°F9.1°C 42.5°F5.8°C 80% 12.7 mph SW20.4 kmh SW 25.3 mph40.7 kmh 29.02 in982.7 mb - 0.01 in0.3 mm 0.59 in15.0 mm
04:45 AM 48.6°F9.2°C 42.4°F5.8°C 79% 11.5 mph SW18.5 kmh SW 26.5 mph42.6 kmh 29.03 in983.1 mb - 0.02 in0.5 mm 0.60 in15.2 mm
04:50 AM 48.6°F9.2°C 42.4°F5.8°C 79% 16.1 mph SW25.9 kmh SW 19.6 mph31.5 kmh 29.01 in982.4 mb - 0.02 in0.5 mm 0.61 in15.5 mm
04:55 AM 48.6°F9.2°C 42.0°F5.6°C 78% 12.7 mph WSW20.4 kmh WSW 19.6 mph31.5 kmh 29.00 in982.1 mb - 0.00 in0.0 mm 0.61 in15.5 mm
05:00 AM 48.3°F9.1°C 41.4°F5.2°C 77% 16.1 mph SW25.9 kmh SW 24.2 mph38.9 kmh 28.99 in981.7 mb - 0.01 in0.3 mm 0.62 in15.7 mm
05:05 AM 48.3°F9.1°C 41.4°F5.2°C 77% 11.5 mph SW18.5 kmh SW 25.3 mph40.7 kmh 28.98 in981.4 mb - 0.01 in0.3 mm 0.63 in16.0 mm
05:10 AM 48.1°F8.9°C 41.2°F5.1°C 77% 12.7 mph SW20.4 kmh SW 19.6 mph31.5 kmh 28.98 in981.4 mb - 0.01 in0.3 mm 0.63 in16.0 mm
05:15 AM 48.1°F8.9°C 41.2°F5.1°C 77% 10.4 mph WSW16.7 kmh WSW 21.9 mph35.2 kmh 28.97 in981.0 mb - 0.00 in0.0 mm 0.63 in16.0 mm
05:20 AM 47.9°F8.8°C 41.0°F5.0°C 77% 12.7 mph SW20.4 kmh SW 15.0 mph24.1 kmh 28.98 in981.4 mb - 0.00 in0.0 mm 0.63 in16.0 mm
05:25 AM 47.9°F8.8°C 41.0°F5.0°C 77% 12.7 mph SW20.4 kmh SW 19.6 mph31.5 kmh 28.97 in981.0 mb - 0.00 in0.0 mm 0.63 in16.0 mm
05:30 AM 47.9°F8.8°C 41.0°F5.0°C 77% 16.1 mph SW25.9 kmh SW 23.0 mph37.0 kmh 28.97 in981.0 mb - 0.01 in0.3 mm 0.64 in16.3 mm
05:35 AM 47.8°F8.8°C 41.0°F5.0°C 77% 15.0 mph SW24.1 kmh SW 23.0 mph37.0 kmh 28.97 in981.0 mb - 0.00 in0.0 mm 0.64 in16.3 mm
05:40 AM 48.0°F8.9°C 41.1°F5.1°C 77% 13.8 mph SW22.2 kmh SW 24.2 mph38.9 kmh 28.97 in981.0 mb - 0.00 in0.0 mm 0.64 in16.3 mm
05:45 AM 48.0°F8.9°C 41.1°F5.1°C 77% 17.3 mph SW27.8 kmh SW 34.5 mph55.5 kmh 28.96 in980.7 mb - 0.00 in0.0 mm 0.64 in16.3 mm
05:50 AM 48.1°F8.9°C 41.2°F5.1°C 77% 17.3 mph SW27.8 kmh SW 23.0 mph37.0 kmh 28.96 in980.7 mb - 0.00 in0.0 mm 0.64 in16.3 mm
05:55 AM 48.1°F8.9°C 41.2°F5.1°C 77% 16.1 mph SW25.9 kmh SW 23.0 mph37.0 kmh 28.96 in980.7 mb - 0.00 in0.0 mm 0.64 in16.3 mm
06:00 AM 48.1°F8.9°C 41.2°F5.1°C 77% 17.3 mph SW27.8 kmh SW 21.9 mph35.2 kmh 28.96 in980.7 mb - 0.00 in0.0 mm 0.64 in16.3 mm
06:05 AM 47.9°F8.8°C 40.7°F4.8°C 76% 15.0 mph WSW24.1 kmh WSW 24.2 mph38.9 kmh 28.96 in980.7 mb - 0.00 in0.0 mm 0.64 in16.3 mm
06:10 AM 47.8°F8.8°C 40.6°F4.8°C 76% 15.0 mph SW24.1 kmh SW 32.2 mph51.8 kmh 28.96 in980.7 mb - 0.00 in0.0 mm 0.64 in16.3 mm
06:15 AM 47.8°F8.8°C 40.6°F4.8°C 76% 15.0 mph SW24.1 kmh SW 24.2 mph38.9 kmh 28.96 in980.7 mb - 0.00 in0.0 mm 0.64 in16.3 mm
06:20 AM 47.6°F8.7°C 40.4°F4.7°C 76% 13.8 mph SW22.2 kmh SW 21.9 mph35.2 kmh 28.96 in980.7 mb - 0.00 in0.0 mm 0.64 in16.3 mm
06:25 AM 46.7°F8.2°C 39.6°F4.2°C 76% 17.3 mph WSW27.8 kmh WSW 29.9 mph48.1 kmh 28.97 in981.0 mb - 0.00 in0.0 mm 0.64 in16.3 mm
06:30 AM 43.9°F6.6°C 37.1°F2.8°C 77% 11.5 mph W18.5 kmh W 17.3 mph27.8 kmh 28.97 in981.0 mb - 0.00 in0.0 mm 0.64 in16.3 mm
06:35 AM 42.7°F5.9°C 36.0°F2.2°C 77% 11.5 mph W18.5 kmh W 13.8 mph22.2 kmh 28.97 in981.0 mb - 0.00 in0.0 mm 0.64 in16.3 mm
06:40 AM 42.4°F5.8°C 36.0°F2.2°C 78% 9.2 mph W14.8 kmh W 12.7 mph20.4 kmh 28.97 in981.0 mb - 0.01 in0.3 mm 0.65 in16.5 mm
06:45 AM 42.3°F5.7°C 35.9°F2.2°C 78% 9.2 mph WSW14.8 kmh WSW 13.8 mph22.2 kmh 28.97 in981.0 mb - 0.00 in0.0 mm 0.65 in16.5 mm
06:50 AM 42.9°F6.1°C 36.5°F2.5°C 78% 11.5 mph WSW18.5 kmh WSW 19.6 mph31.5 kmh 28.97 in981.0 mb - 0.00 in0.0 mm 0.65 in16.5 mm
06:55 AM 43.8°F6.6°C 37.3°F2.9°C 78% 15.0 mph WSW24.1 kmh WSW 20.7 mph33.3 kmh 28.96 in980.7 mb - 0.01 in0.3 mm 0.65 in16.5 mm
07:00 AM 44.1°F6.7°C 37.3°F2.9°C 77% 13.8 mph WSW22.2 kmh WSW 21.9 mph35.2 kmh 28.96 in980.7 mb - 0.00 in0.0 mm 0.65 in16.5 mm
07:05 AM 44.0°F6.7°C 37.3°F2.9°C 77% 20.7 mph SW33.3 kmh SW 34.5 mph55.5 kmh 28.96 in980.7 mb - 0.01 in0.3 mm 0.66 in16.8 mm
07:10 AM 43.8°F6.6°C 36.8°F2.7°C 76% 13.8 mph WSW22.2 kmh WSW 21.9 mph35.2 kmh 28.95 in980.4 mb - 0.00 in0.0 mm 0.66 in16.8 mm
07:15 AM 43.5°F6.4°C 36.8°F2.7°C 77% 13.8 mph WSW22.2 kmh WSW 20.7 mph33.3 kmh 28.96 in980.7 mb - 0.00 in0.0 mm 0.66 in16.8 mm
07:20 AM 43.3°F6.3°C 36.6°F2.6°C 77% 13.8 mph WSW22.2 kmh WSW 18.4 mph29.6 kmh 28.97 in981.0 mb - 0.00 in0.0 mm 0.66 in16.8 mm
07:25 AM 43.3°F6.3°C 36.6°F2.6°C 77% 11.5 mph SW18.5 kmh SW 18.4 mph29.6 kmh 28.97 in981.0 mb - 0.00 in0.0 mm 0.66 in16.8 mm
07:30 AM 43.4°F6.3°C 36.6°F2.6°C 77% 12.7 mph SW20.4 kmh SW 16.1 mph25.9 kmh 28.97 in981.0 mb - 0.00 in0.0 mm 0.66 in16.8 mm
07:35 AM 43.4°F6.3°C 36.7°F2.6°C 77% 19.6 mph SW31.5 kmh SW 26.5 mph42.6 kmh 28.97 in981.0 mb - 0.00 in0.0 mm 0.66 in16.8 mm
07:40 AM 43.4°F6.3°C 36.3°F2.4°C 76% 15.0 mph SW24.1 kmh SW 17.3 mph27.8 kmh 28.97 in981.0 mb - 0.00 in0.0 mm 0.66 in16.8 mm
07:45 AM 43.4°F6.3°C 36.7°F2.6°C 77% 16.1 mph WSW25.9 kmh WSW 23.0 mph37.0 kmh 28.99 in981.7 mb - 0.00 in0.0 mm 0.66 in16.8 mm
07:50 AM 43.4°F6.3°C 36.7°F2.6°C 77% 19.6 mph SW31.5 kmh SW 27.6 mph44.4 kmh 29.00 in982.1 mb - 0.01 in0.3 mm 0.67 in17.0 mm
07:55 AM 42.4°F5.8°C 35.7°F2.1°C 77% 17.3 mph WSW27.8 kmh WSW 19.6 mph31.5 kmh 28.99 in981.7 mb - 0.01 in0.3 mm 0.68 in17.3 mm
08:00 AM 41.8°F5.4°C 35.1°F1.7°C 77% 13.8 mph WSW22.2 kmh WSW 24.2 mph38.9 kmh 28.99 in981.7 mb - 0.00 in0.0 mm 0.68 in17.3 mm
08:05 AM 41.6°F5.3°C 34.9°F1.6°C 77% 15.0 mph SW24.1 kmh SW 19.6 mph31.5 kmh 29.00 in982.1 mb - 0.00 in0.0 mm 0.68 in17.3 mm
08:10 AM 41.7°F5.4°C 35.0°F1.7°C 77% 16.1 mph WSW25.9 kmh WSW 26.5 mph42.6 kmh 29.00 in982.1 mb - 0.00 in0.0 mm 0.68 in17.3 mm
08:15 AM 41.8°F5.4°C 35.1°F1.7°C 77% 18.4 mph WSW29.6 kmh WSW 26.5 mph42.6 kmh 29.00 in982.1 mb - 0.00 in0.0 mm 0.68 in17.3 mm
08:20 AM 41.8°F5.4°C 35.1°F1.7°C 77% 15.0 mph WSW24.1 kmh WSW 26.5 mph42.6 kmh 29.00 in982.1 mb - 0.00 in0.0 mm 0.68 in17.3 mm
08:25 AM 41.8°F5.4°C 35.1°F1.7°C 77% 15.0 mph WSW24.1 kmh WSW 21.9 mph35.2 kmh 28.99 in981.7 mb - 0.00 in0.0 mm 0.68 in17.3 mm
08:30 AM 42.0°F5.6°C 35.3°F1.8°C 77% 12.7 mph SW20.4 kmh SW 20.7 mph33.3 kmh 29.00 in982.1 mb - 0.00 in0.0 mm 0.68 in17.3 mm
08:35 AM 41.9°F5.5°C 35.2°F1.8°C 77% 13.8 mph SW22.2 kmh SW 18.4 mph29.6 kmh 29.00 in982.1 mb - 0.00 in0.0 mm 0.68 in17.3 mm
08:40 AM 42.1°F5.6°C 35.4°F1.9°C 77% 18.4 mph SW29.6 kmh SW 27.6 mph44.4 kmh 29.00 in982.1 mb - 0.00 in0.0 mm 0.68 in17.3 mm
08:45 AM 42.3°F5.7°C 35.6°F2.0°C 77% 11.5 mph SW18.5 kmh SW 31.1 mph50.1 kmh 29.01 in982.4 mb - 0.00 in0.0 mm 0.68 in17.3 mm
08:50 AM 42.4°F5.8°C 35.7°F2.1°C 77% 17.3 mph WSW27.8 kmh WSW 26.5 mph42.6 kmh 29.01 in982.4 mb - 0.00 in0.0 mm 0.68 in17.3 mm
08:55 AM 42.5°F5.8°C 35.8°F2.1°C 77% 16.1 mph SW25.9 kmh SW 19.6 mph31.5 kmh 29.01 in982.4 mb - 0.00 in0.0 mm 0.68 in17.3 mm
09:00 AM 42.5°F5.8°C 35.8°F2.1°C 77% 13.8 mph WSW22.2 kmh WSW 24.2 mph38.9 kmh 29.01 in982.4 mb - 0.00 in0.0 mm 0.68 in17.3 mm
09:05 AM 42.5°F5.8°C 35.8°F2.1°C 77% 17.3 mph SW27.8 kmh SW 24.2 mph38.9 kmh 29.01 in982.4 mb - 0.00 in0.0 mm 0.68 in17.3 mm
09:10 AM 42.6°F5.9°C 35.5°F1.9°C 76% 17.3 mph SW27.8 kmh SW 29.9 mph48.1 kmh 29.01 in982.4 mb - 0.00 in0.0 mm 0.68 in17.3 mm
09:15 AM 42.8°F6.0°C 35.7°F2.1°C 76% 25.3 mph WSW40.7 kmh WSW 34.5 mph55.5 kmh 29.01 in982.4 mb - 0.00 in0.0 mm 0.68 in17.3 mm
09:20 AM 42.8°F6.0°C 35.8°F2.1°C 76% 16.1 mph SW25.9 kmh SW 28.8 mph46.3 kmh 29.01 in982.4 mb - 0.00 in0.0 mm 0.68 in17.3 mm
09:25 AM 42.8°F6.0°C 35.8°F2.1°C 76% 16.1 mph SW25.9 kmh SW 19.6 mph31.5 kmh 29.01 in982.4 mb - 0.00 in0.0 mm 0.68 in17.3 mm
09:30 AM 42.9°F6.1°C 35.9°F2.2°C 76% 17.3 mph SW27.8 kmh SW 23.0 mph37.0 kmh 29.01 in982.4 mb - 0.00 in0.0 mm 0.68 in17.3 mm
09:35 AM 43.2°F6.2°C 35.8°F2.1°C 75% 15.0 mph SW24.1 kmh SW 24.2 mph38.9 kmh 29.01 in982.4 mb - 0.00 in0.0 mm 0.68 in17.3 mm
09:40 AM 43.3°F6.3°C 35.9°F2.2°C 75% 16.1 mph WSW25.9 kmh WSW 19.6 mph31.5 kmh 29.01 in982.4 mb - 0.00 in0.0 mm 0.68 in17.3 mm
09:45 AM 43.3°F6.3°C 36.2°F2.3°C 76% 9.2 mph WSW14.8 kmh WSW 15.0 mph24.1 kmh 29.01 in982.4 mb - 0.00 in0.0 mm 0.68 in17.3 mm
09:50 AM 43.5°F6.4°C 36.1°F2.3°C 75% 18.4 mph SW29.6 kmh SW 21.9 mph35.2 kmh 29.01 in982.4 mb - 0.00 in0.0 mm 0.68 in17.3 mm
09:55 AM 43.7°F6.5°C 36.3°F2.4°C 75% 16.1 mph SW25.9 kmh SW 25.3 mph40.7 kmh 29.01 in982.4 mb - 0.00 in0.0 mm 0.68 in17.3 mm
10:00 AM 43.8°F6.6°C 36.4°F2.4°C 75% 17.3 mph SW27.8 kmh SW 28.8 mph46.3 kmh 29.01 in982.4 mb - 0.00 in0.0 mm 0.68 in17.3 mm
10:05 AM 44.0°F6.7°C 36.6°F2.6°C 75% 13.8 mph SW22.2 kmh SW 21.9 mph35.2 kmh 29.02 in982.7 mb - 0.00 in0.0 mm 0.68 in17.3 mm
10:10 AM 44.1°F6.7°C 36.6°F2.6°C 75% 16.1 mph SW25.9 kmh SW 20.7 mph33.3 kmh 29.02 in982.7 mb - 0.00 in0.0 mm 0.68 in17.3 mm
10:15 AM 44.2°F6.8°C 36.4°F2.4°C 74% 21.9 mph WSW35.2 kmh WSW 31.1 mph50.1 kmh 29.02 in982.7 mb - 0.00 in0.0 mm 0.68 in17.3 mm
10:20 AM 44.3°F6.8°C 36.5°F2.5°C 74% 16.1 mph SW25.9 kmh SW 23.0 mph37.0 kmh 29.02 in982.7 mb - 0.00 in0.0 mm 0.68 in17.3 mm
10:25 AM 44.5°F6.9°C 36.7°F2.6°C 74% 19.6 mph SW31.5 kmh SW 26.5 mph42.6 kmh 29.02 in982.7 mb - 0.00 in0.0 mm 0.68 in17.3 mm
10:30 AM 44.6°F7.0°C 37.2°F2.9°C 75% 13.8 mph WSW22.2 kmh WSW 25.3 mph40.7 kmh 29.02 in982.7 mb - 0.00 in0.0 mm 0.68 in17.3 mm
10:35 AM 44.6°F7.0°C 36.8°F2.7°C 74% 18.4 mph SW29.6 kmh SW 23.0 mph37.0 kmh 29.02 in982.7 mb - 0.00 in0.0 mm 0.68 in17.3 mm
10:40 AM 44.6°F7.0°C 37.2°F2.9°C 75% 17.3 mph SW27.8 kmh SW 32.2 mph51.8 kmh 29.02 in982.7 mb - 0.00 in0.0 mm 0.68 in17.3 mm
10:45 AM 44.5°F6.9°C 37.1°F2.8°C 75% 18.4 mph SW29.6 kmh SW 25.3 mph40.7 kmh 29.03 in983.1 mb - 0.00 in0.0 mm 0.68 in17.3 mm
10:50 AM 44.5°F6.9°C 37.1°F2.8°C 75% 17.3 mph SW27.8 kmh SW 28.8 mph46.3 kmh 29.03 in983.1 mb - 0.00 in0.0 mm 0.68 in17.3 mm
10:55 AM 44.5°F6.9°C 37.1°F2.8°C 75% 17.3 mph WSW27.8 kmh WSW 23.0 mph37.0 kmh 29.03 in983.1 mb - 0.00 in0.0 mm 0.68 in17.3 mm
11:00 AM 44.7°F7.1°C 37.3°F2.9°C 75% 17.3 mph SW27.8 kmh SW 21.9 mph35.2 kmh 29.03 in983.1 mb - 0.00 in0.0 mm 0.68 in17.3 mm
11:05 AM 44.7°F7.1°C 37.2°F2.9°C 75% 15.0 mph SW24.1 kmh SW 20.7 mph33.3 kmh 29.03 in983.1 mb - 0.00 in0.0 mm 0.68 in17.3 mm
11:10 AM 44.7°F7.1°C 37.3°F2.9°C 75% 12.7 mph SW20.4 kmh SW 21.9 mph35.2 kmh 29.03 in983.1 mb - 0.00 in0.0 mm 0.68 in17.3 mm
11:15 AM 45.0°F7.2°C 37.2°F2.9°C 74% 20.7 mph SW33.3 kmh SW 27.6 mph44.4 kmh 29.03 in983.1 mb - 0.00 in0.0 mm 0.68 in17.3 mm
11:20 AM 45.0°F7.2°C 37.2°F2.9°C 74% 18.4 mph SW29.6 kmh SW 25.3 mph40.7 kmh 29.03 in983.1 mb - 0.00 in0.0 mm 0.68 in17.3 mm
11:25 AM 45.1°F7.3°C 37.7°F3.2°C 75% 15.0 mph SW24.1 kmh SW 33.4 mph53.8 kmh 29.04 in983.4 mb - 0.00 in0.0 mm 0.68 in17.3 mm
11:30 AM 45.2°F7.3°C 37.7°F3.2°C 75% 15.0 mph WSW24.1 kmh WSW 26.5 mph42.6 kmh 29.03 in983.1 mb - 0.00 in0.0 mm 0.68 in17.3 mm
11:35 AM 45.6°F7.6°C 38.1°F3.4°C 75% 16.1 mph WSW25.9 kmh WSW 23.0 mph37.0 kmh 29.04 in983.4 mb - 0.00 in0.0 mm 0.68 in17.3 mm
11:40 AM 45.6°F7.6°C 38.1°F3.4°C 75% 17.3 mph SW27.8 kmh SW 28.8 mph46.3 kmh 29.03 in983.1 mb - 0.00 in0.0 mm 0.68 in17.3 mm
11:45 AM 45.7°F7.6°C 37.9°F3.3°C 74% 20.7 mph SW33.3 kmh SW 28.8 mph46.3 kmh 29.03 in983.1 mb - 0.00 in0.0 mm 0.68 in17.3 mm
11:50 AM 45.4°F7.4°C 37.6°F3.1°C 74% 18.4 mph SW29.6 kmh SW 26.5 mph42.6 kmh 29.03 in983.1 mb - 0.00 in0.0 mm 0.68 in17.3 mm
11:55 AM 45.0°F7.2°C 37.6°F3.1°C 75% 15.0 mph SW24.1 kmh SW 31.1 mph50.1 kmh 29.04 in983.4 mb - 0.00 in0.0 mm 0.68 in17.3 mm
12:00 PM 44.9°F7.2°C 37.5°F3.1°C 75% 17.3 mph SW27.8 kmh SW 21.9 mph35.2 kmh 29.04 in983.4 mb - 0.00 in0.0 mm 0.68 in17.3 mm
12:05 PM 44.9°F7.2°C 37.7°F3.2°C 76% 18.4 mph SW29.6 kmh SW 26.5 mph42.6 kmh 29.04 in983.4 mb - 0.00 in0.0 mm 0.68 in17.3 mm
12:10 PM 45.0°F7.2°C 37.6°F3.1°C 75% 21.9 mph SW35.2 kmh SW 35.7 mph57.5 kmh 29.04 in983.4 mb - 0.00 in0.0 mm 0.68 in17.3 mm
12:15 PM 45.2°F7.3°C 37.7°F3.2°C 75% 16.1 mph WSW25.9 kmh WSW 21.9 mph35.2 kmh 29.04 in983.4 mb - 0.00 in0.0 mm 0.68 in17.3 mm
12:20 PM 45.1°F7.3°C 38.0°F3.3°C 76% 18.4 mph SW29.6 kmh SW 27.6 mph44.4 kmh 29.04 in983.4 mb - 0.00 in0.0 mm 0.68 in17.3 mm
12:25 PM 45.1°F7.3°C 38.0°F3.3°C 76% 13.8 mph WSW22.2 kmh WSW 19.6 mph31.5 kmh 29.04 in983.4 mb - 0.00 in0.0 mm 0.68 in17.3 mm
12:30 PM 45.1°F7.3°C 38.0°F3.3°C 76% 13.8 mph WSW22.2 kmh WSW 17.3 mph27.8 kmh 29.05 in983.7 mb - 0.00 in0.0 mm 0.68 in17.3 mm
12:35 PM 45.4°F7.4°C 38.0°F3.3°C 75% 12.7 mph SW20.4 kmh SW 19.6 mph31.5 kmh 29.04 in983.4 mb - 0.00 in0.0 mm 0.68 in17.3 mm
12:40 PM 45.7°F7.6°C 38.2°F3.4°C 75% 13.8 mph SW22.2 kmh SW 21.9 mph35.2 kmh 29.05 in983.7 mb - 0.00 in0.0 mm 0.68 in17.3 mm
12:45 PM 45.6°F7.6°C 38.1°F3.4°C 75% 15.0 mph SW24.1 kmh SW 23.0 mph37.0 kmh 29.05 in983.7 mb - 0.00 in0.0 mm 0.68 in17.3 mm
12:50 PM 45.6°F7.6°C 38.1°F3.4°C 75% 15.0 mph SW24.1 kmh SW 17.3 mph27.8 kmh 29.05 in983.7 mb - 0.00 in0.0 mm 0.68 in17.3 mm
12:55 PM 45.8°F7.7°C 38.3°F3.5°C 75% 16.1 mph SW25.9 kmh SW 23.0 mph37.0 kmh 29.05 in983.7 mb - 0.00 in0.0 mm 0.68 in17.3 mm
01:00 PM 46.3°F7.9°C 38.1°F3.4°C 73% 16.1 mph WSW25.9 kmh WSW 19.6 mph31.5 kmh 29.05 in983.7 mb - 0.00 in0.0 mm 0.68 in17.3 mm
01:05 PM 46.6°F8.1°C 38.4°F3.6°C 73% 19.6 mph WSW31.5 kmh WSW 25.3 mph40.7 kmh 29.05 in983.7 mb - 0.00 in0.0 mm 0.68 in17.3 mm
01:10 PM 46.1°F7.8°C 38.3°F3.5°C 74% 15.0 mph SW24.1 kmh SW 17.3 mph27.8 kmh 29.06 in984.1 mb - 0.00 in0.0 mm 0.68 in17.3 mm
01:15 PM 45.5°F7.5°C 38.0°F3.3°C 75% 17.3 mph WSW27.8 kmh WSW 25.3 mph40.7 kmh 29.06 in984.1 mb - 0.00 in0.0 mm 0.68 in17.3 mm
01:20 PM 45.4°F7.4°C 38.3°F3.5°C 76% 15.0 mph SW24.1 kmh SW 21.9 mph35.2 kmh 29.07 in984.4 mb - 0.00 in0.0 mm 0.68 in17.3 mm
01:25 PM 45.2°F7.3°C 38.1°F3.4°C 76% 15.0 mph WSW24.1 kmh WSW 26.5 mph42.6 kmh 29.07 in984.4 mb - 0.00 in0.0 mm 0.68 in17.3 mm
01:30 PM 45.5°F7.5°C 38.0°F3.3°C 75% 18.4 mph SW29.6 kmh SW 24.2 mph38.9 kmh 29.07 in984.4 mb - 0.00 in0.0 mm 0.68 in17.3 mm
01:35 PM 45.1°F7.3°C 38.0°F3.3°C 76% 15.0 mph WSW24.1 kmh WSW 26.5 mph42.6 kmh 29.07 in984.4 mb - 0.00 in0.0 mm 0.68 in17.3 mm
01:40 PM 44.7°F7.1°C 37.6°F3.1°C 76% 19.6 mph WSW31.5 kmh WSW 28.8 mph46.3 kmh 29.07 in984.4 mb - 0.00 in0.0 mm 0.68 in17.3 mm
01:45 PM 44.5°F6.9°C 37.4°F3.0°C 76% 15.0 mph WSW24.1 kmh WSW 23.0 mph37.0 kmh 29.07 in984.4 mb - 0.00 in0.0 mm 0.68 in17.3 mm
01:50 PM 44.0°F6.7°C 37.3°F2.9°C 77% 11.5 mph SW18.5 kmh SW 19.6 mph31.5 kmh 29.08 in984.8 mb - 0.00 in0.0 mm 0.68 in17.3 mm
01:55 PM 43.4°F6.3°C 36.6°F2.6°C 77% 17.3 mph WSW27.8 kmh WSW 28.8 mph46.3 kmh 29.08 in984.8 mb - 0.00 in0.0 mm 0.68 in17.3 mm
02:00 PM 42.9°F6.1°C 35.8°F2.1°C 76% 16.1 mph WSW25.9 kmh WSW 27.6 mph44.4 kmh 29.08 in984.8 mb - 0.00 in0.0 mm 0.68 in17.3 mm
02:05 PM 43.0°F6.1°C 36.0°F2.2°C 76% 12.7 mph WSW20.4 kmh WSW 18.4 mph29.6 kmh 29.08 in984.8 mb - 0.00 in0.0 mm 0.68 in17.3 mm
02:10 PM 43.6°F6.4°C 36.5°F2.5°C 76% 12.7 mph WSW20.4 kmh WSW 19.6 mph31.5 kmh 29.08 in984.8 mb - 0.00 in0.0 mm 0.68 in17.3 mm
02:15 PM 44.3°F6.8°C 37.2°F2.9°C 76% 13.8 mph WSW22.2 kmh WSW 24.2 mph38.9 kmh 29.08 in984.8 mb - 0.00 in0.0 mm 0.68 in17.3 mm
02:20 PM 44.6°F7.0°C 37.5°F3.1°C 76% 11.5 mph WSW18.5 kmh WSW 15.0 mph24.1 kmh 29.09 in985.1 mb - 0.00 in0.0 mm 0.68 in17.3 mm
02:25 PM 44.2°F6.8°C 37.1°F2.8°C 76% 11.5 mph WSW18.5 kmh WSW 12.7 mph20.4 kmh 29.09 in985.1 mb - 0.01 in0.3 mm 0.69 in17.5 mm
02:30 PM 43.7°F6.5°C 36.6°F2.6°C 76% 15.0 mph WSW24.1 kmh WSW 25.3 mph40.7 kmh 29.09 in985.1 mb - 0.00 in0.0 mm 0.69 in17.5 mm
02:35 PM 43.3°F6.3°C 36.2°F2.3°C 76% 13.8 mph WSW22.2 kmh WSW 24.2 mph38.9 kmh 29.10 in985.4 mb - 0.01 in0.3 mm 0.69 in17.5 mm
02:40 PM 43.0°F6.1°C 36.0°F2.2°C 76% 15.0 mph WSW24.1 kmh WSW 24.2 mph38.9 kmh 29.10 in985.4 mb - 0.00 in0.0 mm 0.69 in17.5 mm
02:45 PM 43.1°F6.2°C 36.0°F2.2°C 76% 12.7 mph WSW20.4 kmh WSW 15.0 mph24.1 kmh 29.10 in985.4 mb - 0.00 in0.0 mm 0.69 in17.5 mm
02:50 PM 43.1°F6.2°C 36.0°F2.2°C 76% 13.8 mph WSW22.2 kmh WSW 18.4 mph29.6 kmh 29.10 in985.4 mb - 0.00 in0.0 mm 0.69 in17.5 mm
02:55 PM 43.5°F6.4°C 36.4°F2.4°C 76% 10.4 mph WSW16.7 kmh WSW 16.1 mph25.9 kmh 29.10 in985.4 mb - 0.00 in0.0 mm 0.69 in17.5 mm
03:00 PM 43.6°F6.4°C 36.5°F2.5°C 76% 13.8 mph SW22.2 kmh SW 18.4 mph29.6 kmh 29.10 in985.4 mb - 0.00 in0.0 mm 0.69 in17.5 mm
03:05 PM 43.7°F6.5°C 36.6°F2.6°C 76% 10.4 mph WSW16.7 kmh WSW 15.0 mph24.1 kmh 29.10 in985.4 mb - 0.00 in0.0 mm 0.69 in17.5 mm
03:10 PM 43.8°F6.6°C 36.7°F2.6°C 76% 9.2 mph SW14.8 kmh SW 13.8 mph22.2 kmh 29.11 in985.8 mb - 0.00 in0.0 mm 0.69 in17.5 mm
03:15 PM 43.9°F6.6°C 36.8°F2.7°C 76% 16.1 mph SW25.9 kmh SW 31.1 mph50.1 kmh 29.11 in985.8 mb - 0.00 in0.0 mm 0.69 in17.5 mm
03:20 PM 44.0°F6.7°C 36.9°F2.7°C 76% 12.7 mph SW20.4 kmh SW 24.2 mph38.9 kmh 29.11 in985.8 mb - 0.00 in0.0 mm 0.69 in17.5 mm
03:25 PM 44.1°F6.7°C 37.0°F2.8°C 76% 15.0 mph WSW24.1 kmh WSW 15.0 mph24.1 kmh 29.12 in986.1 mb - 0.00 in0.0 mm 0.69 in17.5 mm
03:30 PM 44.0°F6.7°C 36.9°F2.7°C 76% 17.3 mph WSW27.8 kmh WSW 25.3 mph40.7 kmh 29.13 in986.5 mb - 0.00 in0.0 mm 0.69 in17.5 mm
03:35 PM 43.7°F6.5°C 36.6°F2.6°C 76% 15.0 mph WSW24.1 kmh WSW 23.0 mph37.0 kmh 29.13 in986.5 mb - 0.00 in0.0 mm 0.69 in17.5 mm
03:40 PM 43.4°F6.3°C 36.4°F2.4°C 76% 12.7 mph WSW20.4 kmh WSW 19.6 mph31.5 kmh 29.13 in986.5 mb - 0.00 in0.0 mm 0.69 in17.5 mm
03:45 PM 43.3°F6.3°C 36.6°F2.6°C 77% 11.5 mph W18.5 kmh W 12.7 mph20.4 kmh 29.13 in986.5 mb - 0.00 in0.0 mm 0.69 in17.5 mm
03:50 PM 43.2°F6.2°C 36.2°F2.3°C 76% 12.7 mph WSW20.4 kmh WSW 17.3 mph27.8 kmh 29.13 in986.5 mb - 0.00 in0.0 mm 0.69 in17.5 mm
03:55 PM 43.2°F6.2°C 36.2°F2.3°C 76% 9.2 mph WSW14.8 kmh WSW 11.5 mph18.5 kmh 29.14 in986.8 mb - 0.00 in0.0 mm 0.69 in17.5 mm
04:00 PM 43.1°F6.2°C 36.0°F2.2°C 76% 15.0 mph SW24.1 kmh SW 19.6 mph31.5 kmh 29.14 in986.8 mb - 0.00 in0.0 mm 0.69 in17.5 mm
04:05 PM 42.7°F5.9°C 35.6°F2.0°C 76% 16.1 mph WSW25.9 kmh WSW 20.7 mph33.3 kmh 29.14 in986.8 mb - 0.00 in0.0 mm 0.69 in17.5 mm
04:10 PM 42.3°F5.7°C 35.6°F2.0°C 77% 12.7 mph WSW20.4 kmh WSW 19.6 mph31.5 kmh 29.15 in987.1 mb - 0.00 in0.0 mm 0.69 in17.5 mm
04:15 PM 42.3°F5.7°C 35.6°F2.0°C 77% 12.7 mph WSW20.4 kmh WSW 19.6 mph31.5 kmh 29.15 in987.1 mb - 0.00 in0.0 mm 0.69 in17.5 mm
04:20 PM 42.3°F5.7°C 35.6°F2.0°C 77% 17.3 mph SW27.8 kmh SW 25.3 mph40.7 kmh 29.16 in987.5 mb - 0.01 in0.3 mm 0.70 in17.8 mm
04:25 PM 41.9°F5.5°C 35.2°F1.8°C 77% 10.4 mph WSW16.7 kmh WSW 19.6 mph31.5 kmh 29.16 in987.5 mb - 0.02 in0.5 mm 0.71 in18.0 mm
04:30 PM 41.6°F5.3°C 34.9°F1.6°C 77% 9.2 mph SW14.8 kmh SW 16.1 mph25.9 kmh 29.16 in987.5 mb - 0.00 in0.0 mm 0.71 in18.0 mm
04:35 PM 41.4°F5.2°C 34.7°F1.5°C 77% 11.5 mph WSW18.5 kmh WSW 19.6 mph31.5 kmh 29.16 in987.5 mb - 0.00 in0.0 mm 0.71 in18.0 mm
04:40 PM 41.2°F5.1°C 34.5°F1.4°C 77% 12.7 mph WSW20.4 kmh WSW 19.6 mph31.5 kmh 29.17 in987.8 mb - 0.00 in0.0 mm 0.71 in18.0 mm
04:45 PM 41.1°F5.1°C 34.4°F1.3°C 77% 12.7 mph WSW20.4 kmh WSW 16.1 mph25.9 kmh 29.17 in987.8 mb - 0.00 in0.0 mm 0.71 in18.0 mm
04:50 PM 41.0°F5.0°C 34.3°F1.3°C 77% 9.2 mph WSW14.8 kmh WSW 12.7 mph20.4 kmh 29.17 in987.8 mb - 0.00 in0.0 mm 0.71 in18.0 mm
04:55 PM 40.8°F4.9°C 34.1°F1.2°C 77% 4.6 mph WNW7.4 kmh WNW 8.1 mph13.0 kmh 29.17 in987.8 mb - 0.00 in0.0 mm 0.71 in18.0 mm
05:00 PM 40.6°F4.8°C 33.9°F1.1°C 77% 2.3 mph WSW3.7 kmh WSW 3.5 mph5.6 kmh 29.18 in988.1 mb - 0.00 in0.0 mm 0.71 in18.0 mm
05:05 PM 40.4°F4.7°C 33.8°F1.0°C 77% 3.5 mph WNW5.6 kmh WNW 4.6 mph7.4 kmh 29.18 in988.1 mb - 0.00 in0.0 mm 0.71 in18.0 mm
05:10 PM 40.3°F4.6°C 33.7°F0.9°C 77% 4.6 mph W7.4 kmh W 8.1 mph13.0 kmh 29.19 in988.5 mb - 0.00 in0.0 mm 0.71 in18.0 mm
05:15 PM 40.4°F4.7°C 33.8°F1.0°C 77% 8.1 mph WSW13.0 kmh WSW 18.4 mph29.6 kmh 29.19 in988.5 mb - 0.01 in0.3 mm 0.72 in18.3 mm
05:20 PM 40.9°F4.9°C 34.2°F1.2°C 77% 11.5 mph WSW18.5 kmh WSW 20.7 mph33.3 kmh 29.20 in988.8 mb - 0.02 in0.5 mm 0.74 in18.8 mm
05:25 PM 41.0°F5.0°C 34.3°F1.3°C 77% 6.9 mph WSW11.1 kmh WSW 11.5 mph18.5 kmh 29.20 in988.8 mb - 0.00 in0.0 mm 0.74 in18.8 mm
05:30 PM 40.9°F4.9°C 34.2°F1.2°C 77% 10.4 mph WSW16.7 kmh WSW 16.1 mph25.9 kmh 29.20 in988.8 mb - 0.01 in0.3 mm 0.74 in18.8 mm
05:35 PM 40.8°F4.9°C 34.1°F1.2°C 77% 8.1 mph WSW13.0 kmh WSW 11.5 mph18.5 kmh 29.20 in988.8 mb - 0.00 in0.0 mm 0.74 in18.8 mm
05:40 PM 40.9°F4.9°C 34.2°F1.2°C 77% 6.9 mph WSW11.1 kmh WSW 11.5 mph18.5 kmh 29.20 in988.8 mb - 0.00 in0.0 mm 0.74 in18.8 mm
05:45 PM 40.9°F4.9°C 34.2°F1.2°C 77% 9.2 mph WSW14.8 kmh WSW 16.1 mph25.9 kmh 29.20 in988.8 mb - 0.00 in0.0 mm 0.74 in18.8 mm
05:50 PM 41.0°F5.0°C 35.0°F1.7°C 79% 9.2 mph WSW14.8 kmh WSW 11.5 mph18.5 kmh 29.20 in988.8 mb - 0.00 in0.0 mm 0.74 in18.8 mm
05:55 PM 41.2°F5.1°C 34.5°F1.4°C 77% 9.2 mph WSW14.8 kmh WSW 11.5 mph18.5 kmh 29.21 in989.2 mb - 0.00 in0.0 mm 0.74 in18.8 mm
06:00 PM 41.3°F5.2°C 34.6°F1.4°C 77% 10.4 mph WSW16.7 kmh WSW 15.0 mph24.1 kmh 29.21 in989.2 mb - 0.00 in0.0 mm 0.74 in18.8 mm
06:05 PM 41.3°F5.2°C 34.3°F1.3°C 76% 11.5 mph SW18.5 kmh SW 18.4 mph29.6 kmh 29.21 in989.2 mb - 0.00 in0.0 mm 0.74 in18.8 mm
06:10 PM 41.3°F5.2°C 34.3°F1.3°C 76% 9.2 mph WSW14.8 kmh WSW 11.5 mph18.5 kmh 29.22 in989.5 mb - 0.00 in0.0 mm 0.74 in18.8 mm
06:15 PM 41.1°F5.1°C 34.5°F1.4°C 77% 12.7 mph WSW20.4 kmh WSW 17.3 mph27.8 kmh 29.22 in989.5 mb - 0.00 in0.0 mm 0.74 in18.8 mm
06:20 PM 40.9°F4.9°C 34.2°F1.2°C 77% 10.4 mph WSW16.7 kmh WSW 15.0 mph24.1 kmh 29.22 in989.5 mb - 0.00 in0.0 mm 0.74 in18.8 mm
06:25 PM 40.7°F4.8°C 34.0°F1.1°C 77% 8.1 mph WSW13.0 kmh WSW 13.8 mph22.2 kmh 29.22 in989.5 mb - 0.00 in0.0 mm 0.74 in18.8 mm
06:30 PM 40.6°F4.8°C 34.0°F1.1°C 77% 8.1 mph WSW13.0 kmh WSW 15.0 mph24.1 kmh 29.22 in989.5 mb - 0.01 in0.3 mm 0.75 in19.1 mm
06:35 PM 40.6°F4.8°C 34.0°F1.1°C 77% 11.5 mph WSW18.5 kmh WSW 20.7 mph33.3 kmh 29.22 in989.5 mb - 0.01 in0.3 mm 0.76 in19.3 mm
06:40 PM 40.6°F4.8°C 34.0°F1.1°C 77% 10.4 mph W16.7 kmh W 15.0 mph24.1 kmh 29.22 in989.5 mb - 0.01 in0.3 mm 0.77 in19.6 mm
06:45 PM 40.3°F4.6°C 33.7°F0.9°C 77% 13.8 mph WSW22.2 kmh WSW 17.3 mph27.8 kmh 29.23 in989.8 mb - 0.02 in0.5 mm 0.79 in20.1 mm
06:50 PM 39.6°F4.2°C 33.3°F0.7°C 78% 10.4 mph W16.7 kmh W 13.8 mph22.2 kmh 29.23 in989.8 mb - 0.02 in0.5 mm 0.80 in20.3 mm
06:55 PM 39.1°F3.9°C 32.8°F0.4°C 78% 8.1 mph W13.0 kmh W 11.5 mph18.5 kmh 29.23 in989.8 mb - 0.01 in0.3 mm 0.81 in20.6 mm
07:00 PM 38.8°F3.8°C 32.5°F0.3°C 78% 5.8 mph W9.3 kmh W 11.5 mph18.5 kmh 29.24 in990.2 mb - 0.02 in0.5 mm 0.83 in21.1 mm
07:05 PM 38.6°F3.7°C 32.3°F0.2°C 78% 9.2 mph W14.8 kmh W 15.0 mph24.1 kmh 29.24 in990.2 mb - 0.00 in0.0 mm 0.83 in21.1 mm
07:10 PM 38.5°F3.6°C 32.6°F0.3°C 79% 13.8 mph W22.2 kmh W 17.3 mph27.8 kmh 29.24 in990.2 mb - 0.01 in0.3 mm 0.84 in21.3 mm
07:15 PM 38.3°F3.5°C 32.4°F0.2°C 79% 6.9 mph W11.1 kmh W 10.4 mph16.7 kmh 29.25 in990.5 mb - 0.02 in0.5 mm 0.85 in21.6 mm
07:20 PM 38.1°F3.4°C 32.2°F0.1°C 79% 6.9 mph W11.1 kmh W 8.1 mph13.0 kmh 29.24 in990.2 mb - 0.02 in0.5 mm 0.86 in21.8 mm
07:25 PM 38.0°F3.3°C 32.1°F0.1°C 79% 5.8 mph W9.3 kmh W 6.9 mph11.1 kmh 29.24 in990.2 mb - 0.01 in0.3 mm 0.87 in22.1 mm
07:30 PM 37.9°F3.3°C 32.0°F0.0°C 79% 6.9 mph NW11.1 kmh NW 10.4 mph16.7 kmh 29.24 in990.2 mb - 0.01 in0.3 mm 0.88 in22.4 mm
07:35 PM 37.9°F3.3°C 32.0°F0.0°C 79% 6.9 mph W11.1 kmh W 10.4 mph16.7 kmh 29.24 in990.2 mb - 0.00 in0.0 mm 0.88 in22.4 mm
07:40 PM 37.9°F3.3°C 32.0°F0.0°C 79% 8.1 mph W13.0 kmh W 10.4 mph16.7 kmh 29.25 in990.5 mb - 0.00 in0.0 mm 0.88 in22.4 mm
07:45 PM 37.9°F3.3°C 32.3°F0.2°C 80% 8.1 mph W13.0 kmh W 10.4 mph16.7 kmh 29.25 in990.5 mb - 0.00 in0.0 mm 0.88 in22.4 mm
07:50 PM 38.0°F3.3°C 32.1°F0.1°C 79% 4.6 mph WSW7.4 kmh WSW 6.9 mph11.1 kmh 29.25 in990.5 mb - 0.01 in0.3 mm 0.89 in22.6 mm
07:55 PM 38.0°F3.3°C 32.4°F0.2°C 80% 5.8 mph WSW9.3 kmh WSW 9.2 mph14.8 kmh 29.25 in990.5 mb - 0.00 in0.0 mm 0.89 in22.6 mm
08:00 PM 38.0°F3.3°C 32.4°F0.2°C 80% 6.9 mph WNW11.1 kmh WNW 10.4 mph16.7 kmh 29.26 in990.9 mb - 0.00 in0.0 mm 0.89 in22.6 mm
08:05 PM 38.0°F3.3°C 32.4°F0.2°C 80% 5.8 mph WNW9.3 kmh WNW 9.2 mph14.8 kmh 29.26 in990.9 mb - 0.01 in0.3 mm 0.89 in22.6 mm
08:10 PM 38.0°F3.3°C 32.4°F0.2°C 80% 3.5 mph WNW5.6 kmh WNW 5.8 mph9.3 kmh 29.26 in990.9 mb - 0.00 in0.0 mm 0.89 in22.6 mm
08:15 PM 38.0°F3.3°C 32.3°F0.2°C 80% 3.5 mph WNW5.6 kmh WNW 3.5 mph5.6 kmh 29.26 in990.9 mb - 0.00 in0.0 mm 0.89 in22.6 mm
08:20 PM 37.9°F3.3°C 32.3°F0.2°C 80% 4.6 mph NW7.4 kmh NW 8.1 mph13.0 kmh 29.26 in990.9 mb - 0.00 in0.0 mm 0.89 in22.6 mm
08:25 PM 37.8°F3.2°C 32.2°F0.1°C 80% 4.6 mph NW7.4 kmh NW 6.9 mph11.1 kmh 29.25 in990.5 mb - 0.00 in0.0 mm 0.89 in22.6 mm
08:30 PM 37.8°F3.2°C 32.2°F0.1°C 80% 4.6 mph NW7.4 kmh NW 6.9 mph11.1 kmh 29.26 in990.9 mb - 0.00 in0.0 mm 0.89 in22.6 mm
08:35 PM 37.8°F3.2°C 32.2°F0.1°C 80% 4.6 mph NW7.4 kmh NW 9.2 mph14.8 kmh 29.26 in990.9 mb - 0.00 in0.0 mm 0.89 in22.6 mm
08:40 PM 38.0°F3.3°C 32.4°F0.2°C 80% 6.9 mph WNW11.1 kmh WNW 10.4 mph16.7 kmh 29.26 in990.9 mb - 0.00 in0.0 mm 0.89 in22.6 mm
08:45 PM 38.2°F3.4°C 32.6°F0.3°C 80% 4.6 mph W7.4 kmh W 5.8 mph9.3 kmh 29.26 in990.9 mb - 0.00 in0.0 mm 0.89 in22.6 mm
08:50 PM 38.5°F3.6°C 32.9°F0.5°C 80% 5.8 mph W9.3 kmh W 6.9 mph11.1 kmh 29.26 in990.9 mb - 0.00 in0.0 mm 0.89 in22.6 mm
08:55 PM 38.8°F3.8°C 32.8°F0.4°C 79% 4.6 mph WNW7.4 kmh WNW 8.1 mph13.0 kmh 29.26 in990.9 mb - 0.00 in0.0 mm 0.89 in22.6 mm
09:00 PM 39.1°F3.9°C 33.1°F0.6°C 79% 4.6 mph NW7.4 kmh NW 8.1 mph13.0 kmh 29.26 in990.9 mb - 0.00 in0.0 mm 0.89 in22.6 mm
09:05 PM 39.3°F4.1°C 33.3°F0.7°C 79% 3.5 mph WNW5.6 kmh WNW 6.9 mph11.1 kmh 29.27 in991.2 mb - 0.00 in0.0 mm 0.89 in22.6 mm
09:10 PM 39.5°F4.2°C 33.5°F0.8°C 79% 1.2 mph WSW1.9 kmh WSW 2.3 mph3.7 kmh 29.27 in991.2 mb - 0.00 in0.0 mm 0.89 in22.6 mm
09:15 PM 39.6°F4.2°C 33.6°F0.9°C 79% Calm Calm 1.2 mph1.9 kmh 29.27 in991.2 mb - 0.00 in0.0 mm 0.89 in22.6 mm
09:20 PM 39.7°F4.3°C 33.4°F0.8°C 78% 2.3 mph WSW3.7 kmh WSW 3.5 mph5.6 kmh 29.27 in991.2 mb - 0.00 in0.0 mm 0.89 in22.6 mm
09:25 PM 39.7°F4.3°C 33.4°F0.8°C 78% 1.2 mph SSW1.9 kmh SSW 2.3 mph3.7 kmh 29.27 in991.2 mb - 0.00 in0.0 mm 0.89 in22.6 mm
09:30 PM 39.7°F4.3°C 33.4°F0.8°C 78% 1.2 mph SSW1.9 kmh SSW 3.5 mph5.6 kmh 29.27 in991.2 mb - 0.00 in0.0 mm 0.89 in22.6 mm
09:35 PM 39.5°F4.2°C 33.2°F0.7°C 78% 2.3 mph WSW3.7 kmh WSW 2.3 mph3.7 kmh 29.27 in991.2 mb - 0.00 in0.0 mm 0.89 in22.6 mm
09:40 PM 39.7°F4.3°C 33.7°F0.9°C 79% 1.2 mph SW1.9 kmh SW 3.5 mph5.6 kmh 29.27 in991.2 mb - 0.00 in0.0 mm 0.89 in22.6 mm
09:45 PM 39.9°F4.4°C 33.6°F0.9°C 78% 3.5 mph S5.6 kmh S 6.9 mph11.1 kmh 29.27 in991.2 mb - 0.00 in0.0 mm 0.89 in22.6 mm
09:50 PM 40.2°F4.6°C 33.9°F1.1°C 78% 4.6 mph SSW7.4 kmh SSW 5.8 mph9.3 kmh 29.27 in991.2 mb - 0.00 in0.0 mm 0.89 in22.6 mm
09:55 PM 40.4°F4.7°C 34.1°F1.2°C 78% 3.5 mph SW5.6 kmh SW 6.9 mph11.1 kmh 29.27 in991.2 mb - 0.00 in0.0 mm 0.89 in22.6 mm
10:00 PM 40.7°F4.8°C 34.3°F1.3°C 78% 6.9 mph SW11.1 kmh SW 15.0 mph24.1 kmh 29.27 in991.2 mb - 0.00 in0.0 mm 0.89 in22.6 mm
10:05 PM 41.0°F5.0°C 34.7°F1.5°C 78% 5.8 mph SSW9.3 kmh SSW 10.4 mph16.7 kmh 29.27 in991.2 mb - 0.00 in0.0 mm 0.89 in22.6 mm
10:10 PM 41.1°F5.1°C 34.8°F1.6°C 78% 5.8 mph SW9.3 kmh SW 10.4 mph16.7 kmh 29.28 in991.5 mb - 0.00 in0.0 mm 0.89 in22.6 mm
10:15 PM 41.2°F5.1°C 34.5°F1.4°C 77% 4.6 mph SW7.4 kmh SW 8.1 mph13.0 kmh 29.28 in991.5 mb - 0.00 in0.0 mm 0.89 in22.6 mm
10:20 PM 41.1°F5.1°C 34.8°F1.6°C 78% 4.6 mph SW7.4 kmh SW 8.1 mph13.0 kmh 29.28 in991.5 mb - 0.00 in0.0 mm 0.89 in22.6 mm
10:25 PM 41.1°F5.1°C 34.8°F1.6°C 78% 4.6 mph WSW7.4 kmh WSW 9.2 mph14.8 kmh 29.28 in991.5 mb - 0.00 in0.0 mm 0.89 in22.6 mm
10:30 PM 41.2°F5.1°C 34.9°F1.6°C 78% 10.4 mph SW16.7 kmh SW 13.8 mph22.2 kmh 29.28 in991.5 mb - 0.00 in0.0 mm 0.89 in22.6 mm
10:35 PM 41.4°F5.2°C 35.1°F1.7°C 78% 6.9 mph WSW11.1 kmh WSW 10.4 mph16.7 kmh 29.28 in991.5 mb - 0.00 in0.0 mm 0.89 in22.6 mm
10:40 PM 41.4°F5.2°C 35.1°F1.7°C 78% 3.5 mph SW5.6 kmh SW 4.6 mph7.4 kmh 29.28 in991.5 mb - 0.00 in0.0 mm 0.89 in22.6 mm
10:45 PM 41.3°F5.2°C 35.0°F1.7°C 78% 3.5 mph SW5.6 kmh SW 4.6 mph7.4 kmh 29.29 in991.9 mb - 0.00 in0.0 mm 0.89 in22.6 mm
10:50 PM 41.2°F5.1°C 34.8°F1.6°C 78% 3.5 mph SW5.6 kmh SW 5.8 mph9.3 kmh 29.29 in991.9 mb - 0.00 in0.0 mm 0.89 in22.6 mm
10:55 PM 41.1°F5.1°C 34.4°F1.3°C 77% 3.5 mph SW5.6 kmh SW 3.5 mph5.6 kmh 29.29 in991.9 mb - 0.00 in0.0 mm 0.89 in22.6 mm
11:00 PM 41.1°F5.1°C 34.5°F1.4°C 77% 4.6 mph SW7.4 kmh SW 9.2 mph14.8 kmh 29.29 in991.9 mb - 0.00 in0.0 mm 0.89 in22.6 mm
11:05 PM 41.1°F5.1°C 34.4°F1.3°C 77% 3.5 mph WSW5.6 kmh WSW 6.9 mph11.1 kmh 29.29 in991.9 mb - 0.00 in0.0 mm 0.89 in22.6 mm
11:10 PM 41.1°F5.1°C 34.5°F1.4°C 77% 3.5 mph SW5.6 kmh SW 3.5 mph5.6 kmh 29.29 in991.9 mb - 0.00 in0.0 mm 0.89 in22.6 mm
11:15 PM 41.2°F5.1°C 34.5°F1.4°C 77% 5.8 mph SW9.3 kmh SW 8.1 mph13.0 kmh 29.29 in991.9 mb - 0.00 in0.0 mm 0.89 in22.6 mm
11:20 PM 41.2°F5.1°C 34.5°F1.4°C 77% 4.6 mph SW7.4 kmh SW 8.1 mph13.0 kmh 29.29 in991.9 mb - 0.00 in0.0 mm 0.89 in22.6 mm
11:25 PM 41.2°F5.1°C 34.5°F1.4°C 77% 4.6 mph SW7.4 kmh SW 10.4 mph16.7 kmh 29.30 in992.2 mb - 0.00 in0.0 mm 0.89 in22.6 mm
11:30 PM 41.2°F5.1°C 34.5°F1.4°C 77% 6.9 mph SW11.1 kmh SW 9.2 mph14.8 kmh 29.30 in992.2 mb - 0.00 in0.0 mm 0.89 in22.6 mm
11:35 PM 41.2°F5.1°C 34.5°F1.4°C 77% 6.9 mph SW11.1 kmh SW 11.5 mph18.5 kmh 29.30 in992.2 mb - 0.00 in0.0 mm 0.89 in22.6 mm
11:40 PM 41.3°F5.2°C 34.6°F1.4°C 77% 6.9 mph SW11.1 kmh SW 11.5 mph18.5 kmh 29.30 in992.2 mb - 0.00 in0.0 mm 0.89 in22.6 mm
11:45 PM 41.3°F5.2°C 34.6°F1.4°C 77% 4.6 mph SW7.4 kmh SW 6.9 mph11.1 kmh 29.30 in992.2 mb - 0.00 in0.0 mm 0.89 in22.6 mm
11:50 PM 41.2°F5.1°C 34.5°F1.4°C 77% 4.6 mph SW7.4 kmh SW 5.8 mph9.3 kmh 29.30 in992.2 mb - 0.00 in0.0 mm 0.89 in22.6 mm
11:55 PM 41.1°F5.1°C 34.4°F1.3°C 77% 2.3 mph SW3.7 kmh SW 5.8 mph9.3 kmh 29.30 in992.2 mb - 0.00 in0.0 mm 0.89 in22.6 mm